Senador Pompeu, Brazil
Current Conditions -  °F | °C
As of 1:00 PM on Saturday 22 Nov 2014 (Local Time) from SBJU Reporting Station
Few Clouds Few Clouds  
Wind Chill: 95°   Ceiling: Unl
Heat Index: 95°   Visibility: 6mi
Dew Point: 61°   Wind: 6mph
Humidity: 32%   Direction: 40°NE
Pressure: 29.94"   Gusts: NA
Location:  5.59°S, 39.37°W
Report Text: SBJU 221600Z 04005KT 9999 FEW022 35/16 Q1014
Loading
Personal Weather Stations






























Interactive Weather Map New forecast layout! Learn more

10-Day Weather Forecast

Advertisements
Track Severe Weather on mobile